sensor_id;sensor_type;location;lat;lon;timestamp;temperature;humidity
65374;SHT31;52070;53.760;9.678;2022-09-17T00:00:38;12.20;89.26
65374;SHT31;52070;53.760;9.678;2022-09-17T00:03:05;12.17;89.05
65374;SHT31;52070;53.760;9.678;2022-09-17T00:05:35;12.13;89.03
65374;SHT31;52070;53.760;9.678;2022-09-17T00:08:03;12.14;89.02
65374;SHT31;52070;53.760;9.678;2022-09-17T00:10:31;12.14;88.89
65374;SHT31;52070;53.760;9.678;2022-09-17T00:12:58;12.14;88.82
65374;SHT31;52070;53.760;9.678;2022-09-17T00:15:26;12.08;88.46
65374;SHT31;52070;53.760;9.678;2022-09-17T00:17:55;12.07;88.74
65374;SHT31;52070;53.760;9.678;2022-09-17T00:20:24;12.06;88.63
65374;SHT31;52070;53.760;9.678;2022-09-17T00:22:51;12.01;88.71
65374;SHT31;52070;53.760;9.678;2022-09-17T00:25:18;11.98;88.71
65374;SHT31;52070;53.760;9.678;2022-09-17T00:27:45;11.93;88.85
65374;SHT31;52070;53.760;9.678;2022-09-17T00:30:13;11.87;88.70
65374;SHT31;52070;53.760;9.678;2022-09-17T00:32:40;11.89;88.83
65374;SHT31;52070;53.760;9.678;2022-09-17T00:35:08;11.87;88.60
65374;SHT31;52070;53.760;9.678;2022-09-17T00:37:35;11.84;88.47
65374;SHT31;52070;53.760;9.678;2022-09-17T00:40:02;11.83;88.45
65374;SHT31;52070;53.760;9.678;2022-09-17T00:42:30;11.79;88.29
65374;SHT31;52070;53.760;9.678;2022-09-17T00:44:57;11.79;88.25
65374;SHT31;52070;53.760;9.678;2022-09-17T00:47:28;11.76;88.02
65374;SHT31;52070;53.760;9.678;2022-09-17T00:49:59;11.74;88.00
65374;SHT31;52070;53.760;9.678;2022-09-17T00:52:32;11.69;88.06
65374;SHT31;52070;53.760;9.678;2022-09-17T00:55:06;11.62;88.03
65374;SHT31;52070;53.760;9.678;2022-09-17T00:57:38;11.60;87.84
65374;SHT31;52070;53.760;9.678;2022-09-17T01:00:07;11.59;87.81
65374;SHT31;52070;53.760;9.678;2022-09-17T01:02:34;11.58;87.82
65374;SHT31;52070;53.760;9.678;2022-09-17T01:05:01;11.58;87.35
65374;SHT31;52070;53.760;9.678;2022-09-17T01:07:53;11.58;87.51
65374;SHT31;52070;53.760;9.678;2022-09-17T01:10:35;11.60;86.96
65374;SHT31;52070;53.760;9.678;2022-09-17T01:13:10;11.60;86.66
65374;SHT31;52070;53.760;9.678;2022-09-17T01:15:47;11.60;86.66
65374;SHT31;52070;53.760;9.678;2022-09-17T01:18:34;11.58;86.39
65374;SHT31;52070;53.760;9.678;2022-09-17T01:21:32;11.59;86.06
65374;SHT31;52070;53.760;9.678;2022-09-17T01:27:30;11.70;85.44
65374;SHT31;52070;53.760;9.678;2022-09-17T01:30:15;11.73;85.59
65374;SHT31;52070;53.760;9.678;2022-09-17T01:32:48;11.77;85.28
65374;SHT31;52070;53.760;9.678;2022-09-17T01:35:21;11.72;85.41
65374;SHT31;52070;53.760;9.678;2022-09-17T01:37:58;11.73;85.22
65374;SHT31;52070;53.760;9.678;2022-09-17T01:40:31;11.70;85.20
65374;SHT31;52070;53.760;9.678;2022-09-17T01:43:03;11.70;85.34
65374;SHT31;52070;53.760;9.678;2022-09-17T01:45:36;11.69;84.89
65374;SHT31;52070;53.760;9.678;2022-09-17T01:48:10;11.69;84.97
65374;SHT31;52070;53.760;9.678;2022-09-17T01:50:43;11.72;85.17
65374;SHT31;52070;53.760;9.678;2022-09-17T01:53:12;11.69;85.67
65374;SHT31;52070;53.760;9.678;2022-09-17T01:55:42;11.70;85.29
65374;SHT31;52070;53.760;9.678;2022-09-17T01:58:14;11.72;85.10
65374;SHT31;52070;53.760;9.678;2022-09-17T02:00:47;11.67;85.33
65374;SHT31;52070;53.760;9.678;2022-09-17T02:03:18;11.66;85.38
65374;SHT31;52070;53.760;9.678;2022-09-17T02:05:49;11.62;85.62
65374;SHT31;52070;53.760;9.678;2022-09-17T02:08:19;11.60;85.89
65374;SHT31;52070;53.760;9.678;2022-09-17T02:10:52;11.58;85.79
65374;SHT31;52070;53.760;9.678;2022-09-17T02:13:25;11.58;85.87
65374;SHT31;52070;53.760;9.678;2022-09-17T02:16:03;11.56;85.66
65374;SHT31;52070;53.760;9.678;2022-09-17T02:18:36;11.56;85.69
65374;SHT31;52070;53.760;9.678;2022-09-17T02:21:07;11.53;85.74
65374;SHT31;52070;53.760;9.678;2022-09-17T02:23:51;11.58;85.85
65374;SHT31;52070;53.760;9.678;2022-09-17T02:26:22;11.58;85.69
65374;SHT31;52070;53.760;9.678;2022-09-17T02:28:54;11.58;85.81
65374;SHT31;52070;53.760;9.678;2022-09-17T02:31:22;11.60;86.02
65374;SHT31;52070;53.760;9.678;2022-09-17T02:33:53;11.59;85.85
65374;SHT31;52070;53.760;9.678;2022-09-17T02:36:23;11.56;85.79
65374;SHT31;52070;53.760;9.678;2022-09-17T02:38:58;11.58;85.45
65374;SHT31;52070;53.760;9.678;2022-09-17T02:41:35;11.59;85.38
65374;SHT31;52070;53.760;9.678;2022-09-17T02:44:10;11.60;85.26
65374;SHT31;52070;53.760;9.678;2022-09-17T02:46:55;11.58;85.33
65374;SHT31;52070;53.760;9.678;2022-09-17T02:49:42;11.62;85.18
65374;SHT31;52070;53.760;9.678;2022-09-17T02:52:21;11.55;85.18
65374;SHT31;52070;53.760;9.678;2022-09-17T02:54:56;11.58;85.04
65374;SHT31;52070;53.760;9.678;2022-09-17T02:57:29;11.59;85.37
65374;SHT31;52070;53.760;9.678;2022-09-17T03:00:03;11.60;85.15
65374;SHT31;52070;53.760;9.678;2022-09-17T03:02:35;11.60;85.22
65374;SHT31;52070;53.760;9.678;2022-09-17T03:05:07;11.58;84.89
65374;SHT31;52070;53.760;9.678;2022-09-17T03:07:34;11.60;84.76
65374;SHT31;52070;53.760;9.678;2022-09-17T03:10:03;11.62;85.08
65374;SHT31;52070;53.760;9.678;2022-09-17T03:12:30;11.59;85.03
65374;SHT31;52070;53.760;9.678;2022-09-17T03:14:58;11.60;84.92
65374;SHT31;52070;53.760;9.678;2022-09-17T03:17:25;11.59;84.93
65374;SHT31;52070;53.760;9.678;2022-09-17T03:19:52;11.58;85.08
65374;SHT31;52070;53.760;9.678;2022-09-17T03:22:20;11.56;85.00
65374;SHT31;52070;53.760;9.678;2022-09-17T03:24:47;11.59;85.33
65374;SHT31;52070;53.760;9.678;2022-09-17T03:27:14;11.58;84.91
65374;SHT31;52070;53.760;9.678;2022-09-17T03:29:41;11.60;85.33
65374;SHT31;52070;53.760;9.678;2022-09-17T03:32:08;11.63;85.24
65374;SHT31;52070;53.760;9.678;2022-09-17T03:34:35;11.63;85.52
65374;SHT31;52070;53.760;9.678;2022-09-17T03:37:02;11.66;86.69
65374;SHT31;52070;53.760;9.678;2022-09-17T03:39:31;11.66;87.80
65374;SHT31;52070;53.760;9.678;2022-09-17T03:41:58;11.66;88.59
65374;SHT31;52070;53.760;9.678;2022-09-17T03:44:25;11.60;89.18
65374;SHT31;52070;53.760;9.678;2022-09-17T03:46:52;11.62;89.63
65374;SHT31;52070;53.760;9.678;2022-09-17T03:49:19;11.59;90.00
65374;SHT31;52070;53.760;9.678;2022-09-17T03:51:46;11.60;90.32
65374;SHT31;52070;53.760;9.678;2022-09-17T03:54:13;11.56;90.63
65374;SHT31;52070;53.760;9.678;2022-09-17T03:56:41;11.52;90.91
65374;SHT31;52070;53.760;9.678;2022-09-17T03:59:08;11.46;91.26
65374;SHT31;52070;53.760;9.678;2022-09-17T04:01:35;11.46;91.50
65374;SHT31;52070;53.760;9.678;2022-09-17T04:04:02;11.40;91.72
65374;SHT31;52070;53.760;9.678;2022-09-17T04:06:29;11.40;91.83
65374;SHT31;52070;53.760;9.678;2022-09-17T04:08:56;11.39;91.99
65374;SHT31;52070;53.760;9.678;2022-09-17T04:11:25;11.36;92.15
65374;SHT31;52070;53.760;9.678;2022-09-17T04:13:54;11.32;92.07
65374;SHT31;52070;53.760;9.678;2022-09-17T04:16:21;11.33;92.01
65374;SHT31;52070;53.760;9.678;2022-09-17T04:18:48;11.28;91.70
65374;SHT31;52070;53.760;9.678;2022-09-17T04:21:15;11.25;91.38
65374;SHT31;52070;53.760;9.678;2022-09-17T04:23:42;11.23;91.13
65374;SHT31;52070;53.760;9.678;2022-09-17T04:26:09;11.21;90.97
65374;SHT31;52070;53.760;9.678;2022-09-17T04:28:36;11.15;90.91
65374;SHT31;52070;53.760;9.678;2022-09-17T04:31:04;11.12;91.16
65374;SHT31;52070;53.760;9.678;2022-09-17T04:33:31;11.02;90.99
65374;SHT31;52070;53.760;9.678;2022-09-17T04:35:58;10.98;91.13
65374;SHT31;52070;53.760;9.678;2022-09-17T04:38:25;10.95;91.12
65374;SHT31;52070;53.760;9.678;2022-09-17T04:40:52;10.92;91.15
65374;SHT31;52070;53.760;9.678;2022-09-17T04:43:22;10.88;91.10
65374;SHT31;52070;53.760;9.678;2022-09-17T04:45:49;10.84;91.13
65374;SHT31;52070;53.760;9.678;2022-09-17T04:48:17;10.78;91.11
65374;SHT31;52070;53.760;9.678;2022-09-17T04:50:44;10.77;91.18
65374;SHT31;52070;53.760;9.678;2022-09-17T04:53:11;10.78;91.34
65374;SHT31;52070;53.760;9.678;2022-09-17T04:55:38;10.72;91.40
65374;SHT31;52070;53.760;9.678;2022-09-17T04:58:05;10.67;91.50
65374;SHT31;52070;53.760;9.678;2022-09-17T05:00:32;10.63;91.84
65374;SHT31;52070;53.760;9.678;2022-09-17T05:03:00;10.57;91.91
65374;SHT31;52070;53.760;9.678;2022-09-17T05:05:28;10.56;92.03
65374;SHT31;52070;53.760;9.678;2022-09-17T05:07:55;10.54;92.13
65374;SHT31;52070;53.760;9.678;2022-09-17T05:10:23;10.56;92.12
65374;SHT31;52070;53.760;9.678;2022-09-17T05:12:52;10.56;92.22
65374;SHT31;52070;53.760;9.678;2022-09-17T05:15:21;10.54;92.27
65374;SHT31;52070;53.760;9.678;2022-09-17T05:17:48;10.57;92.42
65374;SHT31;52070;53.760;9.678;2022-09-17T05:20:16;10.57;92.50
65374;SHT31;52070;53.760;9.678;2022-09-17T05:22:46;10.58;92.59
65374;SHT31;52070;53.760;9.678;2022-09-17T05:25:14;10.61;92.62
65374;SHT31;52070;53.760;9.678;2022-09-17T05:27:42;10.64;92.53
65374;SHT31;52070;53.760;9.678;2022-09-17T05:30:11;10.68;92.45
65374;SHT31;52070;53.760;9.678;2022-09-17T05:32:38;10.67;92.28
65374;SHT31;52070;53.760;9.678;2022-09-17T05:35:06;10.68;92.11
65374;SHT31;52070;53.760;9.678;2022-09-17T05:37:33;10.75;91.99
65374;SHT31;52070;53.760;9.678;2022-09-17T05:40:03;10.85;91.62
65374;SHT31;52070;53.760;9.678;2022-09-17T05:42:31;10.85;90.76
65374;SHT31;52070;53.760;9.678;2022-09-17T05:44:58;10.91;90.35
65374;SHT31;52070;53.760;9.678;2022-09-17T05:47:25;10.91;88.74
65374;SHT31;52070;53.760;9.678;2022-09-17T05:49:52;10.94;88.74
65374;SHT31;52070;53.760;9.678;2022-09-17T05:52:19;10.94;88.00
65374;SHT31;52070;53.760;9.678;2022-09-17T05:54:46;10.95;87.52
65374;SHT31;52070;53.760;9.678;2022-09-17T05:57:15;10.92;87.61
65374;SHT31;52070;53.760;9.678;2022-09-17T05:59:42;10.97;87.42
65374;SHT31;52070;53.760;9.678;2022-09-17T06:02:12;10.94;86.65
65374;SHT31;52070;53.760;9.678;2022-09-17T06:04:39;10.95;87.12
65374;SHT31;52070;53.760;9.678;2022-09-17T06:07:06;10.95;86.55
65374;SHT31;52070;53.760;9.678;2022-09-17T06:09:34;10.94;86.79
65374;SHT31;52070;53.760;9.678;2022-09-17T06:12:02;10.89;85.11
65374;SHT31;52070;53.760;9.678;2022-09-17T06:14:30;10.89;85.71
65374;SHT31;52070;53.760;9.678;2022-09-17T06:16:57;10.89;85.94
65374;SHT31;52070;53.760;9.678;2022-09-17T06:19:24;10.89;86.01
65374;SHT31;52070;53.760;9.678;2022-09-17T06:21:51;10.91;86.28
65374;SHT31;52070;53.760;9.678;2022-09-17T06:24:18;10.98;86.59
65374;SHT31;52070;53.760;9.678;2022-09-17T06:26:45;11.08;86.56
65374;SHT31;52070;53.760;9.678;2022-09-17T06:29:13;11.21;86.41
65374;SHT31;52070;53.760;9.678;2022-09-17T06:31:41;11.32;85.22
65374;SHT31;52070;53.760;9.678;2022-09-17T06:34:09;11.39;84.73
65374;SHT31;52070;53.760;9.678;2022-09-17T06:36:36;11.49;84.63
65374;SHT31;52070;53.760;9.678;2022-09-17T06:39:03;11.43;83.54
65374;SHT31;52070;53.760;9.678;2022-09-17T06:41:30;11.40;84.18
65374;SHT31;52070;53.760;9.678;2022-09-17T06:43:57;11.33;85.61
65374;SHT31;52070;53.760;9.678;2022-09-17T06:46:24;11.21;86.18
65374;SHT31;52070;53.760;9.678;2022-09-17T06:48:53;11.12;86.72
65374;SHT31;52070;53.760;9.678;2022-09-17T06:51:20;11.07;88.19
65374;SHT31;52070;53.760;9.678;2022-09-17T06:53:48;10.98;88.58
65374;SHT31;52070;53.760;9.678;2022-09-17T06:56:15;10.94;88.41
65374;SHT31;52070;53.760;9.678;2022-09-17T06:58:42;10.88;88.69
65374;SHT31;52070;53.760;9.678;2022-09-17T07:01:10;10.78;88.60
65374;SHT31;52070;53.760;9.678;2022-09-17T07:03:38;10.68;88.30
65374;SHT31;52070;53.760;9.678;2022-09-17T07:06:09;10.72;89.23
65374;SHT31;52070;53.760;9.678;2022-09-17T07:08:37;10.63;89.26
65374;SHT31;52070;53.760;9.678;2022-09-17T07:11:05;10.65;89.66
65374;SHT31;52070;53.760;9.678;2022-09-17T07:13:32;10.63;89.64
65374;SHT31;52070;53.760;9.678;2022-09-17T07:16:01;10.64;90.01
65374;SHT31;52070;53.760;9.678;2022-09-17T07:18:28;10.67;90.40
65374;SHT31;52070;53.760;9.678;2022-09-17T07:20:56;10.69;90.57
65374;SHT31;52070;53.760;9.678;2022-09-17T07:23:26;10.68;90.60
65374;SHT31;52070;53.760;9.678;2022-09-17T07:25:54;10.67;90.57
65374;SHT31;52070;53.760;9.678;2022-09-17T07:28:23;10.57;90.18
65374;SHT31;52070;53.760;9.678;2022-09-17T07:30:51;10.58;90.38
65374;SHT31;52070;53.760;9.678;2022-09-17T07:33:20;10.53;90.04
65374;SHT31;52070;53.760;9.678;2022-09-17T07:35:52;10.50;89.90
65374;SHT31;52070;53.760;9.678;2022-09-17T07:38:19;10.48;90.08
65374;SHT31;52070;53.760;9.678;2022-09-17T07:40:55;10.54;90.28
65374;SHT31;52070;53.760;9.678;2022-09-17T07:43:23;10.63;89.94
65374;SHT31;52070;53.760;9.678;2022-09-17T07:45:51;10.78;89.66
65374;SHT31;52070;53.760;9.678;2022-09-17T07:48:19;10.88;89.46
65374;SHT31;52070;53.760;9.678;2022-09-17T07:50:46;11.01;89.45
65374;SHT31;52070;53.760;9.678;2022-09-17T07:53:13;11.08;88.62
65374;SHT31;52070;53.760;9.678;2022-09-17T07:55:41;11.15;89.26
65374;SHT31;52070;53.760;9.678;2022-09-17T07:58:09;11.32;88.24
65374;SHT31;52070;53.760;9.678;2022-09-17T08:00:36;11.46;87.93
65374;SHT31;52070;53.760;9.678;2022-09-17T08:03:03;11.58;87.03
65374;SHT31;52070;53.760;9.678;2022-09-17T08:05:31;11.74;85.98
65374;SHT31;52070;53.760;9.678;2022-09-17T08:07:58;11.93;85.54
65374;SHT31;52070;53.760;9.678;2022-09-17T08:10:25;12.08;84.08
65374;SHT31;52070;53.760;9.678;2022-09-17T08:12:55;12.08;83.94
65374;SHT31;52070;53.760;9.678;2022-09-17T08:15:24;12.12;84.78
65374;SHT31;52070;53.760;9.678;2022-09-17T08:17:51;12.20;82.86
65374;SHT31;52070;53.760;9.678;2022-09-17T08:20:19;12.35;84.15
65374;SHT31;52070;53.760;9.678;2022-09-17T08:22:46;12.48;83.43
65374;SHT31;52070;53.760;9.678;2022-09-17T08:25:13;12.58;82.98
65374;SHT31;52070;53.760;9.678;2022-09-17T08:27:40;12.61;84.54
65374;SHT31;52070;53.760;9.678;2022-09-17T08:30:08;12.27;84.12
65374;SHT31;52070;53.760;9.678;2022-09-17T08:32:36;12.04;85.28
65374;SHT31;52070;53.760;9.678;2022-09-17T08:35:04;11.82;86.22
65374;SHT31;52070;53.760;9.678;2022-09-17T08:37:32;11.67;87.28
65374;SHT31;52070;53.760;9.678;2022-09-17T08:40:00;11.62;87.68
65374;SHT31;52070;53.760;9.678;2022-09-17T08:42:30;11.66;88.43
65374;SHT31;52070;53.760;9.678;2022-09-17T08:45:01;11.72;88.64
65374;SHT31;52070;53.760;9.678;2022-09-17T08:47:33;11.74;88.96
65374;SHT31;52070;53.760;9.678;2022-09-17T08:50:06;11.74;88.72
65374;SHT31;52070;53.760;9.678;2022-09-17T08:52:51;11.70;86.91
65374;SHT31;52070;53.760;9.678;2022-09-17T08:55:29;11.66;86.10
65374;SHT31;52070;53.760;9.678;2022-09-17T08:58:21;11.65;86.43
65374;SHT31;52070;53.760;9.678;2022-09-17T09:00:56;11.62;86.32
65374;SHT31;52070;53.760;9.678;2022-09-17T09:03:36;11.63;85.64
65374;SHT31;52070;53.760;9.678;2022-09-17T09:06:08;11.66;84.70
65374;SHT31;52070;53.760;9.678;2022-09-17T09:08:39;11.77;85.28
65374;SHT31;52070;53.760;9.678;2022-09-17T09:11:12;11.87;84.13
65374;SHT31;52070;53.760;9.678;2022-09-17T09:13:43;11.93;84.89
65374;SHT31;52070;53.760;9.678;2022-09-17T09:16:15;11.89;84.55
65374;SHT31;52070;53.760;9.678;2022-09-17T09:18:43;11.84;84.12
65374;SHT31;52070;53.760;9.678;2022-09-17T09:21:20;11.94;84.36
65374;SHT31;52070;53.760;9.678;2022-09-17T09:23:52;11.98;84.90
65374;SHT31;52070;53.760;9.678;2022-09-17T09:26:23;11.97;83.29
65374;SHT31;52070;53.760;9.678;2022-09-17T09:29:03;12.00;83.99
65374;SHT31;52070;53.760;9.678;2022-09-17T09:31:49;12.12;83.55
65374;SHT31;52070;53.760;9.678;2022-09-17T09:34:18;12.30;83.71
65374;SHT31;52070;53.760;9.678;2022-09-17T09:36:48;12.40;83.61
65374;SHT31;52070;53.760;9.678;2022-09-17T09:39:19;12.35;83.05
65374;SHT31;52070;53.760;9.678;2022-09-17T09:41:52;12.16;81.64
65374;SHT31;52070;53.760;9.678;2022-09-17T09:44:23;11.86;82.47
65374;SHT31;52070;53.760;9.678;2022-09-17T09:47:01;11.94;83.60
65374;SHT31;52070;53.760;9.678;2022-09-17T09:49:39;12.12;83.81
65374;SHT31;52070;53.760;9.678;2022-09-17T09:52:20;12.27;82.97
65374;SHT31;52070;53.760;9.678;2022-09-17T09:54:59;12.44;83.22
65374;SHT31;52070;53.760;9.678;2022-09-17T09:57:37;12.74;83.62
65374;SHT31;52070;53.760;9.678;2022-09-17T10:00:21;13.12;82.62
65374;SHT31;52070;53.760;9.678;2022-09-17T10:02:52;13.15;80.88
65374;SHT31;52070;53.760;9.678;2022-09-17T10:05:21;13.09;81.16
65374;SHT31;52070;53.760;9.678;2022-09-17T10:07:49;12.88;81.33
65374;SHT31;52070;53.760;9.678;2022-09-17T10:10:16;12.87;82.62
65374;SHT31;52070;53.760;9.678;2022-09-17T10:12:43;12.78;82.48
65374;SHT31;52070;53.760;9.678;2022-09-17T10:15:26;12.69;83.05
65374;SHT31;52070;53.760;9.678;2022-09-17T10:18:16;12.52;84.17
65374;SHT31;52070;53.760;9.678;2022-09-17T10:20:55;12.40;84.73
65374;SHT31;52070;53.760;9.678;2022-09-17T10:23:25;12.17;85.93
65374;SHT31;52070;53.760;9.678;2022-09-17T10:25:54;11.98;85.79
65374;SHT31;52070;53.760;9.678;2022-09-17T10:28:34;11.94;87.15
65374;SHT31;52070;53.760;9.678;2022-09-17T10:31:05;11.79;87.23
65374;SHT31;52070;53.760;9.678;2022-09-17T10:33:38;11.63;88.12
65374;SHT31;52070;53.760;9.678;2022-09-17T10:36:07;11.67;89.12
65374;SHT31;52070;53.760;9.678;2022-09-17T10:38:38;11.70;89.42
65374;SHT31;52070;53.760;9.678;2022-09-17T10:41:16;11.69;89.21
65374;SHT31;52070;53.760;9.678;2022-09-17T10:43:44;11.67;89.33
65374;SHT31;52070;53.760;9.678;2022-09-17T10:46:15;11.84;89.16
65374;SHT31;52070;53.760;9.678;2022-09-17T10:48:45;11.80;89.15
65374;SHT31;52070;53.760;9.678;2022-09-17T10:51:20;11.91;89.20
65374;SHT31;52070;53.760;9.678;2022-09-17T10:54:24;12.31;89.26
65374;SHT31;52070;53.760;9.678;2022-09-17T10:56:54;12.71;89.01
65374;SHT31;52070;53.760;9.678;2022-09-17T10:59:56;12.85;87.46
65374;SHT31;52070;53.760;9.678;2022-09-17T11:02:47;13.15;83.88
65374;SHT31;52070;53.760;9.678;2022-09-17T11:05:32;13.06;82.61
65374;SHT31;52070;53.760;9.678;2022-09-17T11:08:07;13.00;83.90
65374;SHT31;52070;53.760;9.678;2022-09-17T11:10:48;13.42;83.39
65374;SHT31;52070;53.760;9.678;2022-09-17T11:13:23;13.52;83.55
65374;SHT31;52070;53.760;9.678;2022-09-17T11:16:03;13.60;82.31
65374;SHT31;52070;53.760;9.678;2022-09-17T11:18:39;13.71;82.14
65374;SHT31;52070;53.760;9.678;2022-09-17T11:21:29;13.93;80.18
65374;SHT31;52070;53.760;9.678;2022-09-17T11:24:14;13.95;79.22
65374;SHT31;52070;53.760;9.678;2022-09-17T11:26:50;13.98;80.41
65374;SHT31;52070;53.760;9.678;2022-09-17T11:29:36;13.78;81.38
65374;SHT31;52070;53.760;9.678;2022-09-17T11:32:09;13.71;82.04
65374;SHT31;52070;53.760;9.678;2022-09-17T11:34:45;13.97;81.63
65374;SHT31;52070;53.760;9.678;2022-09-17T11:37:21;14.05;80.86
65374;SHT31;52070;53.760;9.678;2022-09-17T11:39:53;14.21;79.93
65374;SHT31;52070;53.760;9.678;2022-09-17T11:42:30;14.22;79.48
65374;SHT31;52070;53.760;9.678;2022-09-17T11:45:01;14.54;81.79
65374;SHT31;52070;53.760;9.678;2022-09-17T11:47:32;14.71;79.65
65374;SHT31;52070;53.760;9.678;2022-09-17T11:50:03;14.71;79.56
65374;SHT31;52070;53.760;9.678;2022-09-17T11:52:38;14.78;80.25
65374;SHT31;52070;53.760;9.678;2022-09-17T11:55:18;14.72;79.53
65374;SHT31;52070;53.760;9.678;2022-09-17T11:57:48;14.76;79.57
65374;SHT31;52070;53.760;9.678;2022-09-17T12:00:18;14.72;77.82
65374;SHT31;52070;53.760;9.678;2022-09-17T12:02:51;14.55;78.88
65374;SHT31;52070;53.760;9.678;2022-09-17T12:05:21;14.62;79.82
65374;SHT31;52070;53.760;9.678;2022-09-17T12:07:53;14.56;77.62
65374;SHT31;52070;53.760;9.678;2022-09-17T12:10:33;14.76;78.59
65374;SHT31;52070;53.760;9.678;2022-09-17T12:13:13;14.85;78.85
65374;SHT31;52070;53.760;9.678;2022-09-17T12:15:45;14.76;76.19
65374;SHT31;52070;53.760;9.678;2022-09-17T12:18:22;14.68;77.59
65374;SHT31;52070;53.760;9.678;2022-09-17T12:20:52;14.61;76.12
65374;SHT31;52070;53.760;9.678;2022-09-17T12:23:27;14.54;76.46
65374;SHT31;52070;53.760;9.678;2022-09-17T12:26:05;14.42;76.46
65374;SHT31;52070;53.760;9.678;2022-09-17T12:28:42;14.28;75.34
65374;SHT31;52070;53.760;9.678;2022-09-17T12:31:18;14.28;76.95
65374;SHT31;52070;53.760;9.678;2022-09-17T12:33:53;14.15;75.16
65374;SHT31;52070;53.760;9.678;2022-09-17T12:36:36;14.07;74.02
65374;SHT31;52070;53.760;9.678;2022-09-17T12:42:18;14.14;75.37
65374;SHT31;52070;53.760;9.678;2022-09-17T12:45:08;14.21;75.20
65374;SHT31;52070;53.760;9.678;2022-09-17T12:48:14;14.76;74.47
65374;SHT31;52070;53.760;9.678;2022-09-17T12:50:56;15.57;73.53
65374;SHT31;52070;53.760;9.678;2022-09-17T12:53:28;15.81;69.30
65374;SHT31;52070;53.760;9.678;2022-09-17T12:56:04;16.24;70.93
65374;SHT31;52070;53.760;9.678;2022-09-17T12:58:42;16.63;69.96
65374;SHT31;52070;53.760;9.678;2022-09-17T13:01:18;16.39;67.77
65374;SHT31;52070;53.760;9.678;2022-09-17T13:03:49;16.05;69.47
65374;SHT31;52070;53.760;9.678;2022-09-17T13:09:40;15.91;69.61
65374;SHT31;52070;53.760;9.678;2022-09-17T13:12:17;16.52;68.30
65374;SHT31;52070;53.760;9.678;2022-09-17T13:14:56;16.96;65.30
65374;SHT31;52070;53.760;9.678;2022-09-17T13:17:32;17.16;61.48
65374;SHT31;52070;53.760;9.678;2022-09-17T13:20:04;16.96;62.75
65374;SHT31;52070;53.760;9.678;2022-09-17T13:22:43;16.73;64.38
65374;SHT31;52070;53.760;9.678;2022-09-17T13:25:11;16.73;66.34
65374;SHT31;52070;53.760;9.678;2022-09-17T13:27:40;16.53;64.55
65374;SHT31;52070;53.760;9.678;2022-09-17T13:30:08;16.38;65.84
65374;SHT31;52070;53.760;9.678;2022-09-17T13:32:49;16.22;65.64
65374;SHT31;52070;53.760;9.678;2022-09-17T13:35:45;16.29;66.63
65374;SHT31;52070;53.760;9.678;2022-09-17T13:38:12;16.62;67.19
65374;SHT31;52070;53.760;9.678;2022-09-17T13:40:40;16.93;65.04
65374;SHT31;52070;53.760;9.678;2022-09-17T13:43:09;17.06;64.92
65374;SHT31;52070;53.760;9.678;2022-09-17T13:46:07;17.02;66.67
65374;SHT31;52070;53.760;9.678;2022-09-17T13:48:45;16.59;67.51
65374;SHT31;52070;53.760;9.678;2022-09-17T13:51:42;16.48;67.78
65374;SHT31;52070;53.760;9.678;2022-09-17T13:54:11;16.49;68.40
65374;SHT31;52070;53.760;9.678;2022-09-17T13:56:41;16.53;69.21
65374;SHT31;52070;53.760;9.678;2022-09-17T13:59:12;16.52;69.87
65374;SHT31;52070;53.760;9.678;2022-09-17T14:02:00;15.97;68.79
65374;SHT31;52070;53.760;9.678;2022-09-17T14:04:34;15.14;73.36
65374;SHT31;52070;53.760;9.678;2022-09-17T14:07:31;14.45;77.56
65374;SHT31;52070;53.760;9.678;2022-09-17T14:09:59;14.04;79.01
65374;SHT31;52070;53.760;9.678;2022-09-17T14:12:51;13.54;80.81
65374;SHT31;52070;53.760;9.678;2022-09-17T14:15:57;13.29;82.70
65374;SHT31;52070;53.760;9.678;2022-09-17T14:18:56;13.05;83.17
65374;SHT31;52070;53.760;9.678;2022-09-17T14:21:28;12.96;83.96
65374;SHT31;52070;53.760;9.678;2022-09-17T14:23:57;12.85;84.33
65374;SHT31;52070;53.760;9.678;2022-09-17T14:26:44;12.71;85.13
65374;SHT31;52070;53.760;9.678;2022-09-17T14:29:25;12.65;85.65
65374;SHT31;52070;53.760;9.678;2022-09-17T14:31:55;12.59;86.47
65374;SHT31;52070;53.760;9.678;2022-09-17T14:34:24;12.58;86.54
65374;SHT31;52070;53.760;9.678;2022-09-17T14:36:53;12.52;87.04
65374;SHT31;52070;53.760;9.678;2022-09-17T14:39:26;12.45;87.55
65374;SHT31;52070;53.760;9.678;2022-09-17T14:41:55;12.41;87.91
65374;SHT31;52070;53.760;9.678;2022-09-17T14:44:24;12.37;87.97
65374;SHT31;52070;53.760;9.678;2022-09-17T14:46:55;12.41;88.46
65374;SHT31;52070;53.760;9.678;2022-09-17T14:49:23;12.41;88.48
65374;SHT31;52070;53.760;9.678;2022-09-17T14:51:53;12.31;88.26
65374;SHT31;52070;53.760;9.678;2022-09-17T14:54:22;12.25;88.09
65374;SHT31;52070;53.760;9.678;2022-09-17T14:56:56;12.20;88.19
65374;SHT31;52070;53.760;9.678;2022-09-17T14:59:34;12.14;88.25
65374;SHT31;52070;53.760;9.678;2022-09-17T15:02:20;12.04;88.21
65374;SHT31;52070;53.760;9.678;2022-09-17T15:04:48;11.94;88.16
65374;SHT31;52070;53.760;9.678;2022-09-17T15:07:19;11.80;88.31
65374;SHT31;52070;53.760;9.678;2022-09-17T15:09:46;11.74;88.68
65374;SHT31;52070;53.760;9.678;2022-09-17T15:12:16;11.72;88.94
65374;SHT31;52070;53.760;9.678;2022-09-17T15:14:45;11.73;88.99
65374;SHT31;52070;53.760;9.678;2022-09-17T15:17:14;11.72;88.96
65374;SHT31;52070;53.760;9.678;2022-09-17T15:19:45;11.66;89.22
65374;SHT31;52070;53.760;9.678;2022-09-17T15:22:19;11.66;89.70
65374;SHT31;52070;53.760;9.678;2022-09-17T15:24:49;11.67;90.02
65374;SHT31;52070;53.760;9.678;2022-09-17T15:27:23;11.66;90.08
65374;SHT31;52070;53.760;9.678;2022-09-17T15:29:54;11.67;90.18
65374;SHT31;52070;53.760;9.678;2022-09-17T15:32:23;11.73;90.50
65374;SHT31;52070;53.760;9.678;2022-09-17T15:35:17;11.73;90.38
65374;SHT31;52070;53.760;9.678;2022-09-17T15:37:46;11.77;90.67
65374;SHT31;52070;53.760;9.678;2022-09-17T15:40:21;11.79;90.88
65374;SHT31;52070;53.760;9.678;2022-09-17T15:42:50;11.86;91.14
65374;SHT31;52070;53.760;9.678;2022-09-17T15:45:19;11.90;91.13
65374;SHT31;52070;53.760;9.678;2022-09-17T15:47:51;11.94;91.24
65374;SHT31;52070;53.760;9.678;2022-09-17T15:50:20;11.96;91.25
65374;SHT31;52070;53.760;9.678;2022-09-17T15:52:49;11.98;90.69
65374;SHT31;52070;53.760;9.678;2022-09-17T15:55:27;11.98;90.85
65374;SHT31;52070;53.760;9.678;2022-09-17T15:57:56;11.98;90.96
65374;SHT31;52070;53.760;9.678;2022-09-17T16:00:23;12.01;91.19
65374;SHT31;52070;53.760;9.678;2022-09-17T16:02:50;12.01;91.16
65374;SHT31;52070;53.760;9.678;2022-09-17T16:05:47;12.04;91.08
65374;SHT31;52070;53.760;9.678;2022-09-17T16:08:21;12.01;90.98
65374;SHT31;52070;53.760;9.678;2022-09-17T16:10:48;12.04;90.90